Abegall, Kentucky
Current Conditions -  °F | °C
As of 9:35 PM on Sunday 21 Dec 2014 (Local Time) from KFGX Reporting Station
Clear Clear  
Wind Chill: 21°   Ceiling: Unl
Heat Index: 27°   Visibility: 10mi
Dew Point: 25°   Wind: 6mph
Humidity: 91%   Direction: 90°E
Pressure: 30.15"   Gusts: NA
Location:  38.6546°N, 83.9578°W
Report Text: KFGX 220235Z AUTO 09005KT 10SM CLR M03/M04 A3015 RMK AO2 T10261039
Loading
Personal Weather Stations






























Interactive Weather Map New forecast layout! Learn more

10-Day Weather Forecast

Advertisements
Track Severe Weather on mobile